Time;durP1;ratioP1;P1;durP2;ratioP2;P2;SDS_P1;SDS_P2;PMS_P1;PMS_P2;Temp;Humidity;BMP_temperature;BMP_pressure;BME280_temperature;BME280_humidity;BME280_pressure;Samples;Min_cycle;Max_cycle;Signal;HPM_P1;HPM_P2
2021/11/16 00:00:27;;;;;;;9.17;8.67;;;11.60;99.90;;;;;;4164021;28;20500;-55
2021/11/16 00:02:48;;;;;;;9.25;8.40;;;11.60;99.90;;;;;;4173054;28;20334;-55
2021/11/16 00:05:09;;;;;;;10.57;9.65;;;11.60;99.90;;;;;;4167806;28;20055;-55
2021/11/16 00:07:30;;;;;;;10.95;8.50;;;11.50;99.90;;;;;;4178547;28;20084;-54
2021/11/16 00:09:51;;;;;;;9.10;8.20;;;11.50;99.90;;;;;;4169507;28;20566;-55
2021/11/16 00:12:13;;;;;;;11.05;9.25;;;11.50;99.90;;;;;;4166292;28;20052;-55
2021/11/16 00:14:33;;;;;;;8.68;8.00;;;11.40;99.90;;;;;;4175024;28;20047;-55
2021/11/16 00:16:54;;;;;;;8.98;8.23;;;11.40;99.90;;;;;;4175663;28;20063;-55
2021/11/16 00:19:16;;;;;;;9.75;8.85;;;11.50;99.90;;;;;;4175616;28;20055;-55
2021/11/16 00:21:36;;;;;;;9.05;8.23;;;11.50;99.90;;;;;;4173208;28;20048;-56
2021/11/16 00:23:58;;;;;;;9.10;8.25;;;11.50;99.90;;;;;;4176575;28;20095;-55
2021/11/16 00:26:18;;;;;;;11.13;9.52;;;11.50;99.90;;;;;;4173339;28;20690;-56
2021/11/16 00:28:39;;;;;;;9.57;8.60;;;11.50;99.90;;;;;;4163310;28;20064;-56
2021/11/16 00:31:01;;;;;;;13.40;10.07;;;11.50;99.90;;;;;;4176880;28;20514;-56
2021/11/16 00:33:22;;;;;;;10.73;8.95;;;11.40;99.90;;;;;;4177772;28;20910;-56
2021/11/16 00:35:43;;;;;;;10.32;9.35;;;11.40;99.90;;;;;;4178079;28;20043;-54
2021/11/16 00:38:09;;;;;;;11.13;8.57;;;11.40;99.90;;;;;;4171683;28;20134;-55
2021/11/16 00:40:30;;;;;;;10.18;7.55;;;11.40;99.90;;;;;;4176752;28;20392;-55
2021/11/16 00:42:50;;;;;;;7.97;7.40;;;11.60;99.90;;;;;;4175185;28;20066;-54
2021/11/16 00:45:13;;;;;;;8.05;7.32;;;11.60;99.90;;;;;;4170664;28;20076;-54
2021/11/16 00:47:34;;;;;;;9.52;8.70;;;11.60;99.90;;;;;;4177811;28;20071;-55
2021/11/16 00:49:54;;;;;;;8.85;8.00;;;11.60;99.90;;;;;;4176454;28;20136;-55
2021/11/16 00:52:15;;;;;;;11.85;8.65;;;11.60;99.90;;;;;;4177296;28;20068;-55
2021/11/16 00:54:36;;;;;;;7.32;6.80;;;11.50;99.90;;;;;;4173646;28;20066;-56
2021/11/16 00:56:57;;;;;;;8.80;8.20;;;11.60;99.90;;;;;;4166584;28;20600;-55
2021/11/16 00:59:17;;;;;;;18.23;8.05;;;11.60;99.90;;;;;;4177783;28;20048;-55
2021/11/16 01:01:38;;;;;;;8.65;7.88;;;11.60;99.90;;;;;;4175859;28;20108;-55
2021/11/16 01:04:00;;;;;;;10.57;9.15;;;11.60;99.90;;;;;;4177924;28;20095;-55
2021/11/16 01:06:21;;;;;;;9.15;8.25;;;11.60;99.90;;;;;;4175843;28;20495;-54
2021/11/16 01:08:42;;;;;;;8.95;7.82;;;11.60;99.90;;;;;;4177231;28;20462;-55
2021/11/16 01:11:03;;;;;;;9.48;8.52;;;11.60;99.90;;;;;;4178589;28;20051;-55
2021/11/16 01:13:28;;;;;;;8.63;7.75;;;11.70;99.90;;;;;;4174137;28;20068;-54
2021/11/16 01:15:50;;;;;;;7.90;7.28;;;11.70;99.90;;;;;;4172039;28;20056;-56
2021/11/16 01:18:11;;;;;;;10.17;9.00;;;11.70;99.90;;;;;;4170787;28;20048;-54
2021/11/16 01:20:33;;;;;;;9.00;8.25;;;11.80;99.90;;;;;;4181041;28;20293;-55
2021/11/16 01:22:56;;;;;;;8.38;7.60;;;11.70;99.90;;;;;;4179967;28;20051;-54
2021/11/16 01:25:17;;;;;;;8.65;8.13;;;11.80;99.90;;;;;;4181390;28;20599;-55
2021/11/16 01:27:39;;;;;;;9.15;7.75;;;11.80;99.90;;;;;;4181367;28;20140;-55
2021/11/16 01:30:01;;;;;;;10.03;9.10;;;11.80;99.90;;;;;;4179506;28;20106;-53
2021/11/16 01:32:34;;;;;;;9.35;8.68;;;11.70;99.90;;;;;;4179642;28;20353;-55
2021/11/16 01:34:54;;;;;;;10.00;9.32;;;11.70;99.90;;;;;;4177738;28;20123;-55
2021/11/16 01:37:15;;;;;;;14.07;10.27;;;11.70;99.90;;;;;;4179436;28;20049;-55
2021/11/16 01:39:36;;;;;;;9.93;9.00;;;11.70;99.90;;;;;;4179954;28;20503;-55
2021/11/16 01:41:57;;;;;;;11.90;9.05;;;11.60;99.90;;;;;;4175170;28;20099;-55
2021/11/16 01:44:18;;;;;;;10.60;9.65;;;11.70;99.90;;;;;;4180821;28;20056;-55
2021/11/16 01:46:39;;;;;;;7.95;7.45;;;11.70;99.90;;;;;;4173668;28;20444;-55
2021/11/16 01:49:01;;;;;;;8.57;8.05;;;11.70;99.90;;;;;;4167966;28;20130;-54
2021/11/16 01:51:26;;;;;;;8.65;7.70;;;11.80;99.90;;;;;;4180296;28;20095;-55
2021/11/16 01:53:49;;;;;;;9.43;8.20;;;11.80;99.90;;;;;;4173490;28;20061;-55
2021/11/16 01:56:09;;;;;;;8.60;7.75;;;11.80;99.90;;;;;;4178513;28;20525;-54
2021/11/16 01:58:30;;;;;;;9.73;8.57;;;11.80;99.90;;;;;;4167919;28;20087;-55
2021/11/16 02:00:51;;;;;;;11.02;9.75;;;11.80;99.90;;;;;;4167010;28;20048;-56
2021/11/16 02:03:13;;;;;;;10.43;9.63;;;11.80;99.90;;;;;;4178396;28;20048;-55
2021/11/16 02:05:39;;;;;;;8.15;7.65;;;11.70;99.90;;;;;;4178565;28;20059;-54
2021/11/16 02:08:00;;;;;;;14.25;8.77;;;11.70;99.90;;;;;;4179964;28;20048;-54
2021/11/16 02:10:20;;;;;;;9.40;8.60;;;11.70;99.90;;;;;;4176321;28;20103;-55
2021/11/16 02:12:41;;;;;;;10.48;9.15;;;11.70;99.90;;;;;;4173879;28;20061;-54
2021/11/16 02:15:04;;;;;;;8.75;8.18;;;11.60;99.90;;;;;;4174995;28;20756;-54
2021/11/16 02:17:25;;;;;;;8.75;8.15;;;11.60;99.90;;;;;;4164258;28;20103;-55
2021/11/16 02:19:47;;;;;;;8.77;8.32;;;11.60;99.90;;;;;;4178492;28;20072;-56
2021/11/16 02:22:07;;;;;;;8.02;7.55;;;11.60;99.90;;;;;;4178573;28;20128;-56
2021/11/16 02:24:28;;;;;;;11.30;8.02;;;11.60;99.90;;;;;;4179904;28;20091;-56
2021/11/16 02:26:50;;;;;;;8.48;7.88;;;11.60;99.90;;;;;;4174127;28;20495;-55
2021/11/16 02:29:10;;;;;;;8.32;7.82;;;11.60;99.90;;;;;;4168909;28;20052;-55
2021/11/16 02:31:32;;;;;;;8.88;8.13;;;11.60;99.90;;;;;;4177629;28;20055;-55
2021/11/16 02:33:53;;;;;;;7.80;7.38;;;11.60;99.90;;;;;;4169529;28;20055;-54
2021/11/16 02:36:13;;;;;;;9.45;8.55;;;11.60;99.90;;;;;;4179370;28;20059;-55
2021/11/16 02:38:35;;;;;;;9.23;8.30;;;11.60;99.90;;;;;;4178392;28;20118;-54
2021/11/16 02:40:56;;;;;;;7.53;7.03;;;11.50;99.90;;;;;;4177116;28;20120;-55
2021/11/16 02:43:17;;;;;;;8.65;8.25;;;11.50;99.90;;;;;;4174438;28;20051;-56
2021/11/16 02:45:39;;;;;;;9.10;8.40;;;11.50;99.90;;;;;;4165105;28;20429;-54
2021/11/16 02:48:11;;;;;;;10.32;9.63;;;11.50;99.90;;;;;;4179578;28;20395;-55
2021/11/16 02:50:32;;;;;;;13.10;9.10;;;11.50;99.90;;;;;;4176634;28;20144;-55
2021/11/16 02:52:52;;;;;;;10.00;9.05;;;11.40;99.90;;;;;;4179758;28;20055;-54
2021/11/16 02:55:15;;;;;;;11.95;8.38;;;11.40;99.90;;;;;;4176223;28;20719;-55
2021/11/16 02:57:36;;;;;;;16.70;8.07;;;11.40;99.90;;;;;;4171520;28;20052;-54
2021/11/16 02:59:57;;;;;;;9.60;8.90;;;11.40;99.90;;;;;;4175608;28;20120;-55
2021/11/16 03:02:18;;;;;;;9.75;9.02;;;11.40;99.90;;;;;;4174500;28;20052;-55
2021/11/16 03:04:44;;;;;;;10.35;9.50;;;11.40;99.90;;;;;;4170748;28;20053;-55
2021/11/16 03:07:05;;;;;;;8.88;8.25;;;11.30;99.90;;;;;;4169330;28;20098;-54
2021/11/16 03:09:29;;;;;;;10.60;9.80;;;11.30;99.90;;;;;;4175183;28;20467;-55
2021/11/16 03:11:50;;;;;;;12.98;8.82;;;11.30;99.90;;;;;;4177453;28;20111;-56
2021/11/16 03:14:11;;;;;;;8.38;7.88;;;11.30;99.90;;;;;;4178783;28;20138;-55
2021/11/16 03:16:33;;;;;;;9.80;8.15;;;11.30;99.90;;;;;;4177982;28;20052;-55
2021/11/16 03:18:54;;;;;;;9.05;8.25;;;11.40;99.90;;;;;;4176321;28;20074;-53
2021/11/16 03:21:16;;;;;;;9.23;8.52;;;11.30;99.90;;;;;;4178364;28;20055;-55
2021/11/16 03:23:37;;;;;;;9.77;8.90;;;11.30;99.90;;;;;;4176872;28;20047;-54
2021/11/16 03:26:01;;;;;;;8.35;7.85;;;11.30;99.90;;;;;;4168351;28;20652;-54
2021/11/16 03:28:24;;;;;;;10.23;9.35;;;11.30;99.90;;;;;;4179320;28;20128;-54
2021/11/16 03:30:49;;;;;;;11.13;10.10;;;11.40;99.90;;;;;;4175010;28;20059;-55
2021/11/16 03:33:10;;;;;;;10.45;9.43;;;11.30;99.90;;;;;;4178234;28;20073;-56
2021/11/16 03:35:35;;;;;;;9.18;8.55;;;11.20;99.90;;;;;;4177773;28;20064;-54
2021/11/16 03:37:58;;;;;;;7.65;7.05;;;11.20;99.90;;;;;;4179693;28;20053;-54
2021/11/16 03:40:22;;;;;;;7.82;7.18;;;11.20;99.90;;;;;;4178859;28;20229;-55
2021/11/16 03:42:45;;;;;;;7.80;7.50;;;11.30;99.90;;;;;;4178853;28;20523;-55
2021/11/16 03:45:08;;;;;;;6.95;6.65;;;11.30;99.90;;;;;;4170433;28;20057;-55
2021/11/16 03:47:28;;;;;;;7.70;7.20;;;11.30;99.90;;;;;;4173156;28;20466;-55
2021/11/16 03:49:49;;;;;;;7.13;6.70;;;11.30;99.90;;;;;;4164883;28;20126;-55
2021/11/16 03:52:10;;;;;;;7.13;6.70;;;11.30;99.90;;;;;;4173217;28;20051;-56
2021/11/16 03:54:31;;;;;;;6.78;6.15;;;11.30;99.90;;;;;;4175145;28;20508;-55
2021/11/16 03:56:59;;;;;;;7.28;6.82;;;11.20;99.90;;;;;;4179342;28;20051;-55
2021/11/16 03:59:19;;;;;;;7.25;6.75;;;11.20;99.90;;;;;;4177297;28;20055;-55
2021/11/16 04:01:40;;;;;;;8.20;7.68;;;11.20;99.90;;;;;;4165820;28;20492;-55
2021/11/16 04:04:03;;;;;;;9.75;8.85;;;11.20;99.90;;;;;;4173604;28;20051;-55
2021/11/16 04:06:24;;;;;;;10.30;9.52;;;11.20;99.90;;;;;;4179103;28;20064;-54
2021/11/16 04:08:45;;;;;;;7.75;7.25;;;11.20;99.90;;;;;;4177007;28;20396;-54
2021/11/16 04:11:06;;;;;;;13.35;7.70;;;11.10;99.90;;;;;;4173732;28;20499;-55
2021/11/16 04:13:27;;;;;;;8.63;7.90;;;11.20;99.90;;;;;;4173893;28;20059;-55
2021/11/16 04:15:49;;;;;;;7.40;7.10;;;11.20;99.90;;;;;;4197691;28;20095;-54
2021/11/16 04:18:10;;;;;;;8.07;7.40;;;11.20;99.90;;;;;;4164076;28;20051;-55
2021/11/16 04:20:34;;;;;;;8.88;8.23;;;11.20;99.90;;;;;;4174511;28;20048;-54
2021/11/16 04:22:56;;;;;;;8.48;7.22;;;11.10;99.90;;;;;;4177017;28;20059;-54
2021/11/16 04:25:17;;;;;;;8.32;7.65;;;11.10;99.90;;;;;;4178030;28;20500;-55
2021/11/16 04:27:39;;;;;;;8.55;7.78;;;11.10;99.90;;;;;;4178026;28;20110;-55
2021/11/16 04:29:59;;;;;;;9.25;8.50;;;11.00;99.90;;;;;;4178497;28;20103;-55
2021/11/16 04:32:20;;;;;;;10.10;8.40;;;11.00;99.90;;;;;;4177164;28;20134;-55
2021/11/16 04:34:40;;;;;;;9.93;9.30;;;11.00;99.90;;;;;;4178938;28;20175;-55
2021/11/16 04:37:01;;;;;;;8.15;7.43;;;11.00;99.90;;;;;;4175226;28;20052;-56
2021/11/16 04:39:22;;;;;;;7.93;7.20;;;10.90;99.90;;;;;;4175553;28;20056;-56
2021/11/16 04:41:44;;;;;;;7.38;6.90;;;10.90;99.90;;;;;;4177441;28;20109;-55
2021/11/16 04:44:07;;;;;;;6.88;6.50;;;11.00;99.90;;;;;;4173033;28;20080;-55
2021/11/16 04:46:28;;;;;;;7.50;6.93;;;10.90;99.90;;;;;;4178320;28;20053;-55
2021/11/16 04:54:00;;;;;;;7.82;7.43;;;10.90;99.90;;;;;;4178439;28;20114;-55
2021/11/16 05:04:18;;;;;;;7.88;7.35;;;10.80;99.90;;;;;;4173373;28;20051;-55
2021/11/16 05:06:39;;;;;;;6.75;6.35;;;10.80;99.90;;;;;;4177881;28;20056;-54
2021/11/16 05:08:59;;;;;;;7.88;7.35;;;10.80;99.90;;;;;;4176468;28;20103;-55
2021/11/16 05:11:23;;;;;;;6.10;5.90;;;10.70;99.90;;;;;;4175462;28;20056;-55
2021/11/16 05:13:48;;;;;;;6.68;6.47;;;10.80;99.90;;;;;;4177647;28;20562;-55
2021/11/16 05:16:10;;;;;;;6.53;6.18;;;10.80;99.90;;;;;;4174179;28;20052;-54
2021/11/16 05:18:31;;;;;;;6.85;6.45;;;10.80;99.90;;;;;;4177271;28;20424;-54
2021/11/16 05:20:52;;;;;;;6.53;6.10;;;10.80;99.90;;;;;;4174542;28;20048;-55
2021/11/16 05:23:13;;;;;;;6.72;5.85;;;10.90;99.90;;;;;;4163026;28;20052;-53
2021/11/16 05:25:34;;;;;;;6.82;6.32;;;10.90;99.90;;;;;;4176690;28;20052;-54
2021/11/16 05:27:55;;;;;;;6.75;6.45;;;10.80;99.90;;;;;;4176668;28;20060;-54
2021/11/16 05:30:16;;;;;;;5.25;4.95;;;10.80;99.90;;;;;;4171995;28;20508;-55
2021/11/16 05:32:41;;;;;;;7.85;7.45;;;10.70;99.90;;;;;;4174584;28;20056;-54
2021/11/16 05:35:03;;;;;;;6.85;6.45;;;10.70;99.90;;;;;;4171474;28;20095;-56
2021/11/16 05:37:24;;;;;;;4.90;4.63;;;10.70;99.90;;;;;;4175804;28;20558;-55
2021/11/16 05:39:44;;;;;;;6.35;5.93;;;10.60;99.90;;;;;;4176058;28;20496;-56
2021/11/16 05:42:05;;;;;;;5.38;5.03;;;10.60;99.90;;;;;;4176735;28;20106;-56
2021/11/16 05:44:27;;;;;;;6.80;5.60;;;10.60;99.90;;;;;;4167310;28;20091;-56
2021/11/16 05:46:47;;;;;;;6.07;5.68;;;10.50;99.90;;;;;;4167239;28;20044;-55
2021/11/16 05:49:08;;;;;;;6.20;5.78;;;10.50;99.90;;;;;;4173832;28;20095;-56
2021/11/16 05:51:30;;;;;;;5.88;5.63;;;10.30;99.90;;;;;;4177314;28;20480;-56
2021/11/16 05:53:56;;;;;;;6.38;6.18;;;10.30;99.90;;;;;;4178633;28;20075;-54
2021/11/16 05:56:19;;;;;;;6.15;5.75;;;10.20;99.90;;;;;;4176233;28;20107;-56
2021/11/16 05:58:42;;;;;;;6.80;6.35;;;10.30;99.90;;;;;;4177792;28;20736;-56
2021/11/16 06:01:02;;;;;;;5.90;5.70;;;10.20;99.90;;;;;;4174924;28;20048;-55
2021/11/16 06:03:23;;;;;;;5.38;5.07;;;10.20;99.90;;;;;;4173181;28;20087;-56
2021/11/16 06:05:44;;;;;;;6.28;5.88;;;10.20;99.90;;;;;;4177971;28;20071;-55
2021/11/16 06:08:06;;;;;;;5.85;5.63;;;10.20;99.90;;;;;;4178605;28;20129;-57
2021/11/16 06:10:26;;;;;;;6.00;5.72;;;10.10;99.90;;;;;;4178382;28;20056;-53
2021/11/16 06:12:47;;;;;;;5.63;5.43;;;10.10;99.90;;;;;;4176144;28;20126;-56
2021/11/16 06:15:09;;;;;;;7.60;6.95;;;10.10;99.90;;;;;;4176038;28;20087;-55
2021/11/16 06:17:29;;;;;;;6.93;6.53;;;10.00;99.90;;;;;;4176921;28;20123;-57
2021/11/16 06:19:50;;;;;;;6.43;6.22;;;10.00;99.90;;;;;;4176966;28;20068;-56
2021/11/16 06:22:11;;;;;;;6.03;5.82;;;10.00;99.90;;;;;;4177314;28;20059;-56
2021/11/16 06:24:31;;;;;;;8.98;8.43;;;10.00;99.90;;;;;;4171662;28;20048;-55
2021/11/16 06:26:52;;;;;;;9.18;8.30;;;9.90;99.90;;;;;;4179086;28;20055;-55
2021/11/16 06:29:13;;;;;;;7.45;7.13;;;9.80;99.90;;;;;;4173339;28;20114;-56
2021/11/16 06:31:35;;;;;;;6.97;6.32;;;9.70;99.90;;;;;;4174884;28;20436;-55
2021/11/16 06:34:02;;;;;;;6.78;6.47;;;9.80;99.90;;;;;;4179301;28;20586;-55
2021/11/16 06:36:23;;;;;;;6.78;6.47;;;9.90;99.90;;;;;;4176952;28;20510;-55
2021/11/16 06:38:44;;;;;;;7.32;7.03;;;10.00;99.90;;;;;;4179664;28;20153;-56
2021/11/16 06:41:04;;;;;;;8.60;8.07;;;9.90;99.90;;;;;;4177322;28;20117;-56
2021/11/16 06:43:35;;;;;;;7.95;7.65;;;9.90;99.90;;;;;;4191417;28;20075;-56
2021/11/16 06:45:59;;;;;;;9.88;8.63;;;9.90;99.90;;;;;;4176957;28;20072;-55
2021/11/16 06:48:21;;;;;;;10.35;9.70;;;9.70;99.90;;;;;;4169346;28;20044;-55
2021/11/16 06:50:42;;;;;;;13.15;11.98;;;9.50;99.90;;;;;;4178091;28;20507;-55
2021/11/16 06:53:03;;;;;;;8.43;7.93;;;9.60;99.90;;;;;;4174521;28;20690;-55
2021/11/16 06:55:23;;;;;;;12.00;11.13;;;9.60;99.90;;;;;;4178552;28;20381;-55
2021/11/16 06:57:47;;;;;;;7.53;6.97;;;9.60;99.90;;;;;;4177038;28;20048;-56
2021/11/16 07:00:08;;;;;;;8.18;7.80;;;9.50;99.90;;;;;;4169906;28;20103;-55
2021/11/16 07:02:29;;;;;;;50.35;8.63;;;9.60;99.90;;;;;;4178305;28;20099;-55
2021/11/16 07:04:50;;;;;;;6.68;6.38;;;9.60;99.90;;;;;;4178224;28;20113;-56
2021/11/16 07:07:11;;;;;;;6.95;6.63;;;9.70;99.90;;;;;;4178063;28;20056;-56
2021/11/16 07:09:35;;;;;;;6.60;6.40;;;9.80;99.90;;;;;;4178634;28;20134;-56
2021/11/16 07:11:55;;;;;;;5.13;4.93;;;9.80;99.90;;;;;;4165396;28;20160;-55
2021/11/16 07:14:19;;;;;;;6.20;5.85;;;9.80;99.90;;;;;;4177742;28;20411;-55
2021/11/16 07:16:42;;;;;;;8.48;7.75;;;9.70;99.90;;;;;;4177576;28;20052;-56
2021/11/16 07:19:08;;;;;;;6.78;6.40;;;9.70;99.90;;;;;;4169782;28;20087;-55
2021/11/16 07:21:46;;;;;;;7.20;6.90;;;9.40;99.90;;;;;;4171009;28;20143;-55
2021/11/16 07:24:11;;;;;;;6.75;6.35;;;9.40;99.90;;;;;;4162102;28;20067;-56
2021/11/16 07:26:32;;;;;;;5.40;5.20;;;9.50;99.90;;;;;;4178617;28;20118;-56
2021/11/16 07:28:53;;;;;;;7.85;7.35;;;9.40;99.90;;;;;;4204247;28;20742;-56
2021/11/16 07:31:25;;;;;;;7.60;7.22;;;9.50;99.90;;;;;;4175986;28;20589;-56
2021/11/16 07:33:46;;;;;;;7.55;7.15;;;9.60;99.90;;;;;;4175246;28;20079;-54
2021/11/16 07:36:08;;;;;;;7.65;7.15;;;9.60;99.90;;;;;;4163117;28;20056;-55
2021/11/16 07:38:29;;;;;;;7.78;7.28;;;9.70;99.90;;;;;;4178526;28;20056;-55
2021/11/16 07:40:49;;;;;;;8.70;7.97;;;9.70;99.90;;;;;;4175942;28;20044;-56
2021/11/16 07:43:13;;;;;;;10.32;9.60;;;9.60;99.90;;;;;;4178708;28;20048;-55
2021/11/16 07:45:38;;;;;;;8.43;7.80;;;9.50;99.90;;;;;;4175579;28;20056;-53
2021/11/16 07:48:06;;;;;;;9.40;8.73;;;9.50;99.90;;;;;;4178770;28;20627;-53
2021/11/16 07:50:37;;;;;;;9.40;8.75;;;9.40;99.90;;;;;;4175342;28;20091;-54
2021/11/16 07:53:17;;;;;;;10.15;9.48;;;9.40;99.90;;;;;;4178575;28;20448;-53
2021/11/16 07:55:39;;;;;;;14.40;13.15;;;9.50;99.90;;;;;;4178332;28;20056;-55
2021/11/16 07:58:05;;;;;;;13.82;12.60;;;9.50;99.90;;;;;;4174534;28;20055;-55
2021/11/16 08:00:27;;;;;;;13.82;12.60;;;9.40;99.90;;;;;;4171458;28;20052;-54
2021/11/16 08:02:52;;;;;;;11.75;10.80;;;9.50;99.90;;;;;;4177806;28;20494;-53
2021/11/16 08:08:10;;;;;;;11.43;10.40;;;9.40;99.90;;;;;;4165445;28;20761;-54
2021/11/16 08:10:33;;;;;;;12.00;10.98;;;9.50;99.90;;;;;;4173154;28;20133;-55
2021/11/16 08:13:07;;;;;;;14.27;12.85;;;9.50;99.90;;;;;;4174207;28;20056;-54
2021/11/16 08:15:27;;;;;;;10.02;9.40;;;9.40;99.90;;;;;;4178515;28;20060;-56
2021/11/16 08:17:49;;;;;;;10.43;9.77;;;9.40;99.90;;;;;;4171002;28;20055;-55
2021/11/16 08:20:13;;;;;;;11.30;10.40;;;9.40;99.90;;;;;;4166538;28;20492;-54
2021/11/16 08:22:35;;;;;;;12.30;11.38;;;9.40;99.90;;;;;;4175760;28;20133;-55
2021/11/16 08:24:57;;;;;;;13.32;12.40;;;9.40;99.90;;;;;;4176857;28;20111;-54
2021/11/16 08:27:29;;;;;;;13.57;12.50;;;9.40;99.90;;;;;;4178122;28;20412;-56
2021/11/16 08:29:58;;;;;;;11.65;10.55;;;9.40;99.90;;;;;;4172959;28;20060;-56
2021/11/16 08:32:24;;;;;;;12.55;11.70;;;9.50;99.90;;;;;;4178545;28;20055;-55
2021/11/16 08:34:48;;;;;;;14.65;13.18;;;9.50;99.90;;;;;;4175516;28;20407;-54
2021/11/16 08:37:10;;;;;;;15.15;13.75;;;9.60;99.90;;;;;;4178464;28;20150;-55
2021/11/16 08:39:36;;;;;;;12.70;11.55;;;9.60;99.90;;;;;;4177108;28;20090;-55
2021/11/16 08:41:57;;;;;;;10.68;10.07;;;9.50;99.90;;;;;;4170188;28;20070;-55
2021/11/16 08:44:30;;;;;;;12.27;11.57;;;9.50;99.90;;;;;;4176963;28;20539;-56
2021/11/16 08:46:51;;;;;;;13.35;12.23;;;9.60;99.90;;;;;;4173207;28;20059;-55
2021/11/16 08:49:31;;;;;;;11.55;10.77;;;9.70;99.90;;;;;;4163919;28;20048;-55
2021/11/16 08:51:53;;;;;;;12.63;11.70;;;9.60;99.90;;;;;;4178261;28;20122;-55
2021/11/16 08:54:22;;;;;;;8.30;7.85;;;9.70;99.90;;;;;;4173707;28;20099;-54
2021/11/16 08:56:43;;;;;;;6.93;6.47;;;9.70;99.90;;;;;;4178233;28;20056;-54
2021/11/16 08:59:14;;;;;;;9.57;9.07;;;9.80;99.90;;;;;;4177479;28;20140;-54
2021/11/16 09:01:35;;;;;;;11.40;10.70;;;9.80;99.90;;;;;;4171214;28;20099;-55
2021/11/16 09:03:55;;;;;;;10.15;9.65;;;9.80;99.90;;;;;;4177126;28;20083;-54
2021/11/16 09:06:22;;;;;;;11.82;10.95;;;9.80;99.90;;;;;;4177314;28;20148;-55
2021/11/16 09:08:43;;;;;;;11.25;10.45;;;9.80;99.90;;;;;;4177574;28;20102;-54
2021/11/16 09:11:13;;;;;;;13.38;12.30;;;9.80;99.90;;;;;;4176449;28;20044;-54
2021/11/16 09:13:34;;;;;;;9.32;8.80;;;9.90;99.90;;;;;;4177369;28;20563;-54
2021/11/16 09:16:04;;;;;;;11.90;9.95;;;9.80;99.90;;;;;;4169802;28;20088;-54
2021/11/16 09:18:29;;;;;;;11.88;10.75;;;9.80;99.90;;;;;;4169964;28;20056;-54
2021/11/16 09:21:09;;;;;;;9.13;8.63;;;9.80;99.90;;;;;;4164526;28;20043;-55
2021/11/16 09:23:47;;;;;;;10.13;9.40;;;9.80;99.90;;;;;;4175053;28;20099;-55
2021/11/16 09:26:25;;;;;;;12.63;11.43;;;9.70;99.90;;;;;;4177124;28;20091;-55
2021/11/16 09:28:52;;;;;;;10.30;9.52;;;9.80;99.90;;;;;;4179324;28;20055;-55
2021/11/16 09:31:19;;;;;;;8.70;8.00;;;9.70;99.90;;;;;;4177322;28;20056;-55
2021/11/16 09:33:39;;;;;;;11.30;10.23;;;9.70;99.90;;;;;;4170328;28;20048;-56
2021/11/16 09:36:01;;;;;;;8.85;8.45;;;9.60;99.90;;;;;;4173321;28;20115;-56
2021/11/16 09:38:44;;;;;;;10.35;9.75;;;9.60;99.90;;;;;;4172669;28;20052;-55
2021/11/16 09:41:05;;;;;;;10.90;10.20;;;9.60;99.90;;;;;;4181789;28;20083;-54
2021/11/16 09:43:26;;;;;;;11.32;10.45;;;9.50;99.90;;;;;;4178059;28;20095;-55
2021/11/16 09:45:48;;;;;;;8.25;7.95;;;9.60;99.90;;;;;;4176485;28;20532;-54
2021/11/16 09:48:09;;;;;;;9.50;9.00;;;9.60;99.90;;;;;;4178555;28;20055;-55
2021/11/16 09:50:30;;;;;;;9.15;8.75;;;9.60;99.90;;;;;;4171676;28;20091;-55
2021/11/16 09:52:53;;;;;;;9.45;8.75;;;9.70;99.90;;;;;;4180594;28;20051;-56
2021/11/16 09:55:17;;;;;;;8.63;8.13;;;9.70;99.90;;;;;;4174873;28;20068;-55
2021/11/16 09:57:40;;;;;;;8.82;8.30;;;9.80;99.90;;;;;;4180036;28;20145;-55
2021/11/16 10:00:09;;;;;;;9.07;8.55;;;9.80;99.90;;;;;;4179815;28;20411;-55
2021/11/16 10:02:30;;;;;;;8.98;8.57;;;9.80;99.90;;;;;;4174036;28;20052;-55
2021/11/16 10:04:53;;;;;;;8.43;8.02;;;9.80;99.90;;;;;;4180306;28;20056;-55
2021/11/16 10:07:13;;;;;;;8.55;8.20;;;9.80;99.90;;;;;;4175430;28;20092;-55
2021/11/16 10:09:34;;;;;;;7.63;7.22;;;9.80;99.90;;;;;;4180405;28;20059;-54
2021/11/16 10:11:55;;;;;;;10.43;9.55;;;9.80;99.90;;;;;;4189538;28;20091;-54
2021/11/16 10:14:18;;;;;;;12.40;11.35;;;10.00;99.90;;;;;;4169839;28;20047;-56
2021/11/16 10:16:38;;;;;;;;;;;10.00;99.90;;;;;;4179649;28;20063;-55
2021/11/16 10:18:59;;;;;;;10.38;9.57;;;10.00;99.90;;;;;;4172641;28;20280;-55
2021/11/16 10:21:19;;;;;;;10.20;9.55;;;10.10;99.90;;;;;;4167653;28;20047;-55
2021/11/16 10:23:47;;;;;;;11.00;10.20;;;10.10;99.90;;;;;;4198115;28;20042;-56
2021/11/16 10:26:10;;;;;;;10.55;9.85;;;10.10;99.90;;;;;;4181238;28;20175;-55
2021/11/16 10:28:32;;;;;;;12.00;11.20;;;10.10;99.90;;;;;;4178594;28;20741;-55
2021/11/16 10:30:59;;;;;;;12.57;11.43;;;10.10;99.90;;;;;;4175816;28;20322;-56
2021/11/16 10:33:25;;;;;;;13.50;12.38;;;10.10;99.90;;;;;;4179986;28;20052;-55
2021/11/16 10:35:58;;;;;;;16.67;15.20;;;10.10;99.90;;;;;;4175197;28;20083;-55
2021/11/16 10:38:21;;;;;;;;;;;10.20;99.90;;;;;;4167993;28;20060;-55
2021/11/16 10:40:41;;;;;;;14.85;13.57;;;10.10;99.90;;;;;;4174810;28;19927;-55
2021/11/16 10:43:03;;;;;;;13.77;12.48;;;10.10;99.90;;;;;;4170049;28;20095;-55
2021/11/16 10:45:26;;;;;;;13.73;12.52;;;10.10;99.90;;;;;;4174383;28;20048;-54
2021/11/16 10:47:48;;;;;;;14.43;13.13;;;10.10;99.90;;;;;;4175801;28;20064;-54
2021/11/16 10:50:11;;;;;;;12.93;12.07;;;10.20;99.90;;;;;;4170603;28;20087;-54
2021/11/16 10:52:32;;;;;;;10.75;9.80;;;10.30;99.90;;;;;;4178900;28;20068;-54
2021/11/16 10:54:57;;;;;;;11.38;10.57;;;10.20;99.90;;;;;;4179545;28;20064;-55
2021/11/16 10:57:20;;;;;;;10.90;10.10;;;10.20;99.90;;;;;;4177299;28;20861;-54
2021/11/16 10:59:41;;;;;;;9.15;8.63;;;10.20;99.90;;;;;;4174525;28;20106;-54
2021/11/16 11:02:02;;;;;;;11.27;10.52;;;10.10;99.90;;;;;;4173533;28;20048;-54
2021/11/16 11:04:33;;;;;;;8.77;8.38;;;10.10;99.90;;;;;;4176347;28;20515;-54
2021/11/16 11:06:55;;;;;;;7.18;6.78;;;10.10;99.90;;;;;;4164059;28;20045;-53
2021/11/16 11:09:18;;;;;;;8.98;8.43;;;10.10;99.90;;;;;;4173708;28;20388;-55
2021/11/16 11:11:41;;;;;;;8.80;7.97;;;10.20;99.90;;;;;;4173182;28;20131;-55
2021/11/16 11:14:10;;;;;;;11.93;10.93;;;10.20;99.90;;;;;;4176640;28;20290;-53
2021/11/16 11:16:33;;;;;;;11.48;10.73;;;10.30;99.90;;;;;;4178059;28;20056;-55
2021/11/16 11:18:55;;;;;;;9.20;8.73;;;10.30;99.90;;;;;;4172621;28;20135;-55
2021/11/16 11:21:37;;;;;;;11.23;10.25;;;10.20;99.90;;;;;;4178683;28;20047;-54
2021/11/16 11:24:05;;;;;;;9.35;8.80;;;10.40;99.90;;;;;;4176823;28;20056;-54
2021/11/16 11:26:52;;;;;;;5.75;5.55;;;10.40;99.90;;;;;;4202045;28;20094;-54
2021/11/16 11:29:36;;;;;;;4.88;4.78;;;10.30;99.90;;;;;;4176261;28;20059;-54
2021/11/16 11:32:05;;;;;;;3.20;3.15;;;10.30;99.90;;;;;;4174916;28;20110;-54
2021/11/16 11:34:42;;;;;;;2.58;2.47;;;10.40;99.90;;;;;;4178359;28;20098;-55
2021/11/16 11:37:11;;;;;;;3.20;3.10;;;10.50;99.90;;;;;;4177841;28;20660;-54
2021/11/16 11:39:32;;;;;;;2.75;2.65;;;10.50;99.90;;;;;;4163884;28;20543;-55
2021/11/16 11:41:56;;;;;;;3.33;3.10;;;10.50;99.90;;;;;;4177340;28;20084;-54
2021/11/16 11:44:19;;;;;;;3.17;3.08;;;10.50;99.90;;;;;;4177816;28;20048;-54
2021/11/16 11:46:48;;;;;;;3.47;3.38;;;10.50;99.90;;;;;;4174679;28;20047;-53
2021/11/16 11:49:09;;;;;;;5.22;5.05;;;10.60;99.90;;;;;;4176878;28;20094;-54
2021/11/16 11:51:30;;;;;;;5.82;5.38;;;10.60;99.90;;;;;;4176858;28;20055;-54
2021/11/16 11:53:52;;;;;;;5.75;5.55;;;10.50;99.90;;;;;;4176476;28;20051;-54
2021/11/16 11:56:15;;;;;;;7.18;6.78;;;10.50;99.90;;;;;;4176783;28;20497;-55
2021/11/16 11:58:44;;;;;;;8.77;8.35;;;10.50;99.90;;;;;;4168509;28;20108;-53
2021/11/16 12:01:11;;;;;;;8.38;8.07;;;10.50;99.90;;;;;;4173639;28;20515;-54
2021/11/16 12:03:32;;;;;;;6.35;6.07;;;10.60;99.90;;;;;;4164910;28;20127;-55
2021/11/16 12:05:54;;;;;;;3.30;2.95;;;10.50;99.90;;;;;;4174602;28;20445;-54
2021/11/16 12:08:15;;;;;;;3.88;3.70;;;10.50;99.90;;;;;;4179497;28;20091;-54
2021/11/16 12:10:41;;;;;;;2.75;2.65;;;10.60;99.90;;;;;;4178464;28;20455;-54
2021/11/16 12:13:03;;;;;;;2.97;2.88;;;10.60;99.90;;;;;;4172532;28;20068;-54
2021/11/16 12:15:39;;;;;;;3.25;3.15;;;10.60;99.90;;;;;;4178588;28;20043;-54
2021/11/16 12:18:04;;;;;;;2.08;2.08;;;10.50;99.90;;;;;;4173538;28;20048;-54
2021/11/16 12:20:40;;;;;;;;;;;10.50;99.90;;;;;;4165810;28;20053;-54
2021/11/16 12:23:25;;;;;;;2.20;2.15;;;10.60;99.90;;;;;;4177515;28;20038;-54
2021/11/16 12:25:47;;;;;;;2.58;2.53;;;10.60;99.90;;;;;;4175229;28;20486;-54
2021/11/16 12:28:30;;;;;;;3.05;2.95;;;10.50;99.90;;;;;;4164737;28;20052;-54
2021/11/16 12:30:54;;;;;;;2.65;2.65;;;10.50;99.90;;;;;;4176330;28;20567;-54
2021/11/16 12:33:43;;;;;;;5.75;2.63;;;10.50;99.90;;;;;;4172223;28;20055;-53
2021/11/16 12:36:05;;;;;;;3.67;3.58;;;10.50;99.90;;;;;;4178054;28;20138;-54
2021/11/16 12:38:37;;;;;;;3.22;3.03;;;10.40;99.90;;;;;;4175972;28;20107;-53
2021/11/16 12:40:58;;;;;;;3.10;3.00;;;10.40;99.90;;;;;;4172789;28;20401;-54